Time;durP1;ratioP1;P1;durP2;ratioP2;P2;SDS_P1;SDS_P2;PMS_P1;PMS_P2;Temp;Humidity;BMP_temperature;BMP_pressure;BME280_temperature;BME280_humidity;BME280_pressure;Samples;Min_cycle;Max_cycle;Signal;HPM_P1;HPM_P2
2023/07/03 00:00:11;;;;;;;19.40;5.50;;;15.30;99.90;;;;;;5044448;28;20049;-71
2023/07/03 00:02:36;;;;;;;12.13;5.00;;;15.30;99.90;;;;;;5042157;28;20040;-72
2023/07/03 00:05:03;;;;;;;16.33;6.35;;;15.30;99.90;;;;;;5044986;28;20470;-70
2023/07/03 00:07:28;;;;;;;18.05;5.65;;;15.30;99.90;;;;;;5042340;28;20041;-72
2023/07/03 00:09:54;;;;;;;15.77;5.68;;;15.40;99.90;;;;;;5044511;28;20018;-72
2023/07/03 00:12:20;;;;;;;14.57;5.75;;;15.30;99.90;;;;;;5045247;28;20049;-73
2023/07/03 00:14:45;;;;;;;15.35;5.95;;;15.30;99.90;;;;;;5027212;28;20075;-73
2023/07/03 00:17:11;;;;;;;17.52;6.00;;;15.30;99.90;;;;;;5045105;28;20089;-72
2023/07/03 00:19:36;;;;;;;17.23;5.40;;;15.40;99.90;;;;;;5044928;28;20022;-72
2023/07/03 00:22:02;;;;;;;14.60;6.07;;;15.40;99.90;;;;;;5044762;28;20478;-72
2023/07/03 00:24:30;;;;;;;19.95;6.25;;;15.40;99.90;;;;;;5044836;28;20025;-72
2023/07/03 00:26:55;;;;;;;17.73;5.82;;;15.40;99.90;;;;;;5044924;28;20036;-72
2023/07/03 00:29:21;;;;;;;16.38;5.32;;;15.40;99.90;;;;;;5044202;28;20077;-71
2023/07/03 00:31:47;;;;;;;14.98;5.85;;;15.40;99.90;;;;;;5045046;28;20021;-72
2023/07/03 00:34:13;;;;;;;12.82;5.22;;;15.40;99.90;;;;;;5043984;28;20047;-74
2023/07/03 00:36:38;;;;;;;17.75;5.43;;;15.40;99.90;;;;;;5026198;28;20041;-72
2023/07/03 00:39:04;;;;;;;15.52;5.63;;;15.40;99.90;;;;;;5043386;28;20052;-72
2023/07/03 00:41:30;;;;;;;18.52;6.43;;;15.50;99.90;;;;;;5044200;28;20544;-72
2023/07/03 00:43:56;;;;;;;13.40;5.65;;;15.40;99.90;;;;;;5041701;28;20031;-72
2023/07/03 00:46:21;;;;;;;14.52;5.68;;;15.40;99.90;;;;;;5044526;28;20053;-72
2023/07/03 00:48:47;;;;;;;18.73;6.07;;;15.40;99.90;;;;;;5026356;28;20135;-73
2023/07/03 00:51:14;;;;;;;17.92;6.30;;;15.40;99.90;;;;;;5044406;28;20025;-76
2023/07/03 00:53:40;;;;;;;16.80;5.60;;;15.40;99.90;;;;;;5025477;28;20034;-72
2023/07/03 00:56:06;;;;;;;16.00;6.07;;;15.40;99.90;;;;;;5044028;28;20026;-73
2023/07/03 00:58:32;;;;;;;15.52;6.10;;;15.40;99.90;;;;;;5044628;28;20044;-71
2023/07/03 01:01:25;;;;;;;17.42;6.10;;;15.40;99.90;;;;;;5044343;28;20467;-73
2023/07/03 01:04:13;;;;;;;21.00;6.40;;;15.40;99.90;;;;;;5044693;28;20025;-73
2023/07/03 01:06:56;;;;;;;16.85;6.13;;;15.50;99.90;;;;;;5044444;28;20060;-73
2023/07/03 01:09:27;;;;;;;19.23;5.57;;;15.50;99.90;;;;;;5026794;28;20497;-71
2023/07/03 01:11:53;;;;;;;18.02;5.85;;;15.40;99.90;;;;;;5026565;28;20055;-72
2023/07/03 01:14:22;;;;;;;18.65;5.93;;;15.40;99.90;;;;;;5044638;28;20029;-72
2023/07/03 01:16:49;;;;;;;16.88;5.93;;;15.40;99.90;;;;;;5044730;28;20029;-74
2023/07/03 01:19:22;;;;;;;17.77;6.00;;;15.40;99.90;;;;;;5026367;28;20502;-74
2023/07/03 01:21:59;;;;;;;18.10;6.20;;;15.40;99.90;;;;;;5044792;28;20022;-73
2023/07/03 01:24:48;;;;;;;19.70;6.28;;;15.40;99.90;;;;;;5026585;28;20113;-74
2023/07/03 01:27:16;;;;;;;15.70;6.18;;;15.40;99.90;;;;;;5026807;28;20045;-70
2023/07/03 01:29:43;;;;;;;18.23;6.32;;;15.40;99.90;;;;;;5026563;28;20517;-72
2023/07/03 01:32:11;;;;;;;14.70;6.05;;;15.40;99.90;;;;;;5043381;28;20099;-72
2023/07/03 01:34:42;;;;;;;17.52;6.15;;;15.40;99.90;;;;;;5043863;28;20025;-74
2023/07/03 01:37:10;;;;;;;18.20;6.07;;;15.40;99.90;;;;;;5033049;28;20045;-72
2023/07/03 01:39:35;;;;;;;16.63;6.60;;;15.40;99.90;;;;;;5043428;28;20072;-73
2023/07/03 01:42:03;;;;;;;18.88;6.30;;;15.40;99.90;;;;;;5041543;28;20099;-69
2023/07/03 01:44:28;;;;;;;17.65;6.25;;;15.40;99.90;;;;;;5043967;28;20025;-71
2023/07/03 01:46:54;;;;;;;15.63;6.03;;;15.30;99.90;;;;;;5043676;28;20106;-73
2023/07/03 01:49:19;;;;;;;16.67;5.80;;;15.40;99.90;;;;;;5043983;28;20029;-74
2023/07/03 01:52:08;;;;;;;16.70;6.68;;;15.30;99.90;;;;;;5026358;28;20034;-72
2023/07/03 01:55:03;;;;;;;18.15;5.97;;;15.40;99.90;;;;;;5042149;28;20063;-71
2023/07/03 01:57:52;;;;;;;20.05;6.38;;;15.30;99.90;;;;;;4978051;28;20064;-73
2023/07/03 02:00:25;;;;;;;17.42;6.07;;;15.30;99.90;;;;;;5024260;28;20486;-71
2023/07/03 02:02:54;;;;;;;19.33;6.90;;;15.30;99.90;;;;;;5006171;28;20497;-73
2023/07/03 02:05:27;;;;;;;24.48;6.75;;;15.30;99.90;;;;;;5024129;28;20026;-72
2023/07/03 02:07:58;;;;;;;23.00;6.93;;;15.30;99.90;;;;;;5023619;28;20065;-71
2023/07/03 02:10:23;;;;;;;22.80;6.45;;;15.20;99.90;;;;;;5006416;28;20110;-72
2023/07/03 02:12:49;;;;;;;15.70;6.03;;;15.20;99.90;;;;;;5024214;28;20025;-72
2023/07/03 02:15:15;;;;;;;16.95;6.88;;;15.20;99.90;;;;;;5023579;28;20037;-71
2023/07/03 02:17:41;;;;;;;13.65;6.65;;;15.20;99.90;;;;;;5034096;28;20021;-72
2023/07/03 02:20:14;;;;;;;19.02;6.22;;;15.20;99.90;;;;;;5043873;28;20116;-71
2023/07/03 02:22:41;;;;;;;19.30;6.82;;;15.10;99.90;;;;;;5043538;28;20037;-70
2023/07/03 02:25:07;;;;;;;18.02;7.07;;;15.10;99.90;;;;;;5043355;28;20025;-71
2023/07/03 02:27:33;;;;;;;19.38;6.60;;;15.10;99.90;;;;;;5025880;28;20064;-69
2023/07/03 02:29:58;;;;;;;15.30;7.35;;;15.10;99.90;;;;;;5043379;28;20049;-70
2023/07/03 02:32:35;;;;;;;20.95;6.38;;;15.10;99.90;;;;;;5025445;28;20033;-70
2023/07/03 02:35:01;;;;;;;16.73;6.82;;;15.10;99.90;;;;;;5043589;28;20040;-71
2023/07/03 02:37:27;;;;;;;21.95;7.20;;;15.00;99.90;;;;;;5043403;28;20057;-71
2023/07/03 02:39:52;;;;;;;23.40;6.93;;;15.00;99.90;;;;;;5043321;28;20050;-71
2023/07/03 02:42:18;;;;;;;16.40;7.00;;;15.00;99.90;;;;;;5043489;28;20438;-74
2023/07/03 02:44:43;;;;;;;18.77;6.93;;;15.10;99.90;;;;;;5043985;28;20108;-71
2023/07/03 02:47:09;;;;;;;19.10;7.28;;;15.00;99.90;;;;;;5042762;28;20041;-72
2023/07/03 02:49:35;;;;;;;24.05;7.22;;;15.00;99.90;;;;;;5032841;28;20029;-73
2023/07/03 02:52:00;;;;;;;20.15;7.15;;;14.90;99.90;;;;;;5043354;28;20084;-72
2023/07/03 02:54:26;;;;;;;19.80;8.02;;;14.90;99.90;;;;;;5042361;28;20083;-73
2023/07/03 02:56:51;;;;;;;19.98;7.15;;;14.90;99.90;;;;;;5043110;28;20021;-71
2023/07/03 02:59:17;;;;;;;18.13;6.55;;;14.90;99.90;;;;;;5042059;28;20038;-76
2023/07/03 03:01:43;;;;;;;22.23;6.85;;;14.90;99.90;;;;;;5043741;28;20029;-70
2023/07/03 03:04:08;;;;;;;21.63;7.63;;;14.90;99.90;;;;;;5046373;28;20052;-70
2023/07/03 03:06:35;;;;;;;24.17;7.10;;;14.90;99.90;;;;;;5046755;28;20053;-70
2023/07/03 03:09:01;;;;;;;20.50;7.03;;;14.90;99.90;;;;;;5046700;28;20041;-70
2023/07/03 03:11:27;;;;;;;23.23;7.78;;;14.90;99.90;;;;;;5046432;28;20034;-72
2023/07/03 03:13:52;;;;;;;27.45;7.55;;;14.90;99.90;;;;;;5046716;28;20037;-73
2023/07/03 03:16:18;;;;;;;22.17;7.78;;;14.90;99.90;;;;;;5046648;28;20025;-72
2023/07/03 03:18:43;;;;;;;23.73;7.75;;;14.90;99.90;;;;;;5045615;28;20026;-72
2023/07/03 03:21:09;;;;;;;22.00;7.43;;;14.90;99.90;;;;;;5045603;28;20029;-73
2023/07/03 03:23:35;;;;;;;24.33;7.60;;;14.90;99.90;;;;;;5046363;28;20141;-71
2023/07/03 03:26:00;;;;;;;20.55;7.60;;;14.90;99.90;;;;;;5046674;28;20025;-72
2023/07/03 03:28:26;;;;;;;27.05;7.63;;;14.90;99.90;;;;;;5046460;28;20041;-69
2023/07/03 03:30:52;;;;;;;23.33;7.20;;;14.90;99.90;;;;;;5046522;28;20072;-72
2023/07/03 03:33:17;;;;;;;23.52;7.43;;;14.90;99.90;;;;;;5045213;28;20017;-73
2023/07/03 03:35:46;;;;;;;23.25;7.00;;;15.00;99.90;;;;;;5046298;28;20463;-72
2023/07/03 03:38:11;;;;;;;22.58;7.45;;;15.00;99.90;;;;;;5044919;28;20025;-73
2023/07/03 03:40:37;;;;;;;27.70;7.88;;;15.00;99.90;;;;;;5046022;28;20053;-70
2023/07/03 03:43:04;;;;;;;22.33;6.97;;;15.00;99.90;;;;;;5046544;28;20032;-74
2023/07/03 03:45:29;;;;;;;24.40;7.35;;;15.00;99.90;;;;;;5044969;28;20033;-70
2023/07/03 03:47:55;;;;;;;30.23;8.70;;;15.00;99.90;;;;;;5046223;28;20037;-71
2023/07/03 03:50:21;;;;;;;20.95;7.22;;;15.00;99.90;;;;;;5046180;28;20030;-71
2023/07/03 03:52:46;;;;;;;34.35;7.72;;;15.00;99.90;;;;;;5044938;28;20497;-75
2023/07/03 03:55:12;;;;;;;18.83;7.07;;;15.10;99.90;;;;;;5044434;28;20021;-72
2023/07/03 03:57:37;;;;;;;26.33;7.32;;;15.00;99.90;;;;;;5046292;28;20101;-73
2023/07/03 04:00:10;;;;;;;26.50;7.78;;;15.10;99.90;;;;;;5027754;28;20025;-71
2023/07/03 04:02:36;;;;;;;23.95;6.90;;;15.10;99.90;;;;;;5046002;28;20026;-73
2023/07/03 04:05:01;;;;;;;21.05;6.95;;;15.00;99.90;;;;;;5046367;28;20037;-71
2023/07/03 04:07:27;;;;;;;26.45;7.55;;;15.10;99.90;;;;;;5045287;28;20056;-71
2023/07/03 04:09:53;;;;;;;25.85;7.45;;;15.10;99.90;;;;;;5045810;28;20053;-71
2023/07/03 04:12:18;;;;;;;25.48;7.28;;;15.10;99.90;;;;;;5046147;28;20079;-71
2023/07/03 04:14:44;;;;;;;23.20;6.97;;;15.00;99.90;;;;;;5028289;28;20036;-72
2023/07/03 04:17:10;;;;;;;27.20;7.45;;;15.10;99.90;;;;;;5045789;28;20025;-71
2023/07/03 04:19:35;;;;;;;18.80;6.78;;;15.10;99.90;;;;;;5045353;28;20064;-71
2023/07/03 04:22:01;;;;;;;24.75;7.38;;;15.10;99.90;;;;;;5044724;28;20022;-70
2023/07/03 04:24:27;;;;;;;24.13;7.95;;;15.10;99.90;;;;;;5045786;28;20021;-71
2023/07/03 04:26:54;;;;;;;28.48;8.27;;;15.10;99.90;;;;;;5030067;28;20029;-75
2023/07/03 04:29:21;;;;;;;28.75;7.32;;;15.20;99.90;;;;;;5045183;28;20048;-70
2023/07/03 04:31:46;;;;;;;30.15;7.97;;;15.20;99.90;;;;;;5043678;28;20024;-70
2023/07/03 04:34:12;;;;;;;25.77;7.20;;;15.20;99.90;;;;;;5044943;28;20049;-71
2023/07/03 04:36:38;;;;;;;27.30;7.40;;;15.20;99.90;;;;;;5044813;28;20032;-71
2023/07/03 04:39:03;;;;;;;24.50;6.65;;;15.20;99.90;;;;;;5044950;28;20060;-70
2023/07/03 04:41:29;;;;;;;24.73;6.95;;;15.30;99.90;;;;;;5044994;28;20025;-69
2023/07/03 04:43:58;;;;;;;27.25;7.18;;;15.30;99.90;;;;;;5026672;28;20033;-71
2023/07/03 04:46:26;;;;;;;31.33;6.95;;;15.30;99.90;;;;;;5045198;28;20026;-72
2023/07/03 04:48:59;;;;;;;20.58;6.95;;;15.40;99.90;;;;;;5044556;28;20031;-71
2023/07/03 04:51:25;;;;;;;30.92;8.15;;;15.50;99.90;;;;;;5044878;28;20022;-71
2023/07/03 04:53:50;;;;;;;28.20;7.32;;;15.60;99.90;;;;;;5026690;28;20478;-72
2023/07/03 04:56:16;;;;;;;23.52;6.70;;;15.50;99.90;;;;;;5045173;28;20041;-72
2023/07/03 04:58:42;;;;;;;23.85;7.40;;;15.60;99.90;;;;;;5027163;28;20030;-71
2023/07/03 05:01:12;;;;;;;23.67;7.30;;;15.60;99.90;;;;;;5034033;28;20275;-69
2023/07/03 05:03:38;;;;;;;26.17;8.10;;;15.70;99.90;;;;;;5034786;28;20085;-71
2023/07/03 05:06:05;;;;;;;25.65;7.40;;;15.60;99.90;;;;;;5044744;28;20033;-73
2023/07/03 05:08:30;;;;;;;30.08;7.57;;;15.60;99.90;;;;;;5026740;28;20064;-72
2023/07/03 05:10:56;;;;;;;24.38;7.05;;;15.60;99.90;;;;;;5026592;28;20029;-71
2023/07/03 05:13:21;;;;;;;23.02;6.88;;;15.60;99.90;;;;;;5044468;28;20108;-70
2023/07/03 05:15:47;;;;;;;22.20;6.35;;;15.60;99.90;;;;;;5044678;28;20037;-73
2023/07/03 05:18:12;;;;;;;23.52;6.70;;;15.50;99.90;;;;;;5044227;28;20029;-71
2023/07/03 05:20:38;;;;;;;19.20;7.00;;;15.60;99.90;;;;;;5043323;28;20052;-71
2023/07/03 05:23:03;;;;;;;18.42;5.97;;;15.50;99.90;;;;;;5044478;28;20037;-72
2023/07/03 05:25:29;;;;;;;26.13;6.55;;;15.50;99.90;;;;;;5042622;28;20025;-70
2023/07/03 05:27:54;;;;;;;19.95;6.15;;;15.50;99.90;;;;;;5044172;28;20063;-71
2023/07/03 05:30:20;;;;;;;28.67;6.72;;;15.50;99.90;;;;;;5043931;28;20025;-72
2023/07/03 05:32:46;;;;;;;26.33;6.72;;;15.50;99.90;;;;;;5044613;28;20502;-72
2023/07/03 05:35:12;;;;;;;22.42;6.72;;;15.40;99.90;;;;;;5043098;28;20093;-72
2023/07/03 05:37:37;;;;;;;25.98;7.30;;;15.40;99.90;;;;;;5042612;28;20026;-70
2023/07/03 05:40:06;;;;;;;21.80;6.43;;;15.40;99.90;;;;;;5042872;28;20132;-70
2023/07/03 05:42:32;;;;;;;23.27;6.72;;;15.40;99.90;;;;;;5043389;28;20105;-70
2023/07/03 05:44:58;;;;;;;20.48;6.57;;;15.40;99.90;;;;;;5043864;28;20029;-71
2023/07/03 05:47:23;;;;;;;25.05;6.72;;;15.40;99.90;;;;;;5042535;28;20040;-71
2023/07/03 05:49:52;;;;;;;24.52;6.43;;;15.50;99.90;;;;;;5043668;28;20025;-72
2023/07/03 05:52:17;;;;;;;21.50;6.15;;;15.50;99.90;;;;;;5044124;28;20033;-71
2023/07/03 05:54:46;;;;;;;22.58;6.15;;;15.50;99.90;;;;;;5026760;28;20030;-71
2023/07/03 05:57:12;;;;;;;17.95;5.32;;;15.60;99.90;;;;;;5043603;28;20033;-71
2023/07/03 05:59:39;;;;;;;23.27;5.57;;;15.50;99.90;;;;;;5043416;28;20051;-71
2023/07/03 06:02:12;;;;;;;17.13;5.70;;;15.50;99.90;;;;;;5025976;28;20034;-72
2023/07/03 06:04:38;;;;;;;22.85;6.13;;;15.50;99.90;;;;;;5043531;28;20038;-71
2023/07/03 06:07:04;;;;;;;25.17;5.22;;;15.50;99.90;;;;;;5043723;28;20033;-71
2023/07/03 06:09:30;;;;;;;23.45;5.50;;;15.60;99.90;;;;;;5043603;28;20029;-68
2023/07/03 06:11:56;;;;;;;16.55;5.45;;;15.60;99.90;;;;;;5043282;28;20032;-71
2023/07/03 06:14:23;;;;;;;22.40;5.47;;;15.60;99.90;;;;;;5044146;28;20075;-71
2023/07/03 06:16:49;;;;;;;20.45;5.40;;;15.60;99.90;;;;;;5043354;28;20029;-70
2023/07/03 06:19:17;;;;;;;18.27;5.85;;;15.60;99.90;;;;;;5026021;28;20025;-70
2023/07/03 06:21:43;;;;;;;19.88;5.72;;;15.60;99.90;;;;;;5044056;28;20037;-69
2023/07/03 06:24:11;;;;;;;20.73;5.85;;;15.60;99.90;;;;;;5043407;28;20033;-71
2023/07/03 06:26:39;;;;;;;21.83;5.57;;;15.60;99.90;;;;;;5043793;28;20092;-68
2023/07/03 06:29:09;;;;;;;21.38;5.82;;;15.60;99.90;;;;;;5042453;28;20052;-68
2023/07/03 06:31:35;;;;;;;22.42;6.05;;;15.70;99.90;;;;;;5043475;28;20033;-70
2023/07/03 06:34:02;;;;;;;25.50;5.45;;;15.80;99.90;;;;;;5043794;28;20033;-73
2023/07/03 06:36:28;;;;;;;24.75;5.43;;;15.80;99.90;;;;;;5042483;28;20116;-71
2023/07/03 06:38:55;;;;;;;21.92;5.38;;;15.90;99.90;;;;;;5045458;28;20054;-72
2023/07/03 06:41:22;;;;;;;22.00;5.88;;;15.90;99.90;;;;;;5046829;28;20055;-74
2023/07/03 06:43:48;;;;;;;19.63;5.45;;;15.90;99.90;;;;;;5047095;28;20018;-72
2023/07/03 06:46:14;;;;;;;20.63;5.10;;;16.00;99.90;;;;;;5047829;28;20759;-71
2023/07/03 06:48:41;;;;;;;24.23;5.65;;;16.00;99.90;;;;;;5047098;28;20071;-74
2023/07/03 06:51:09;;;;;;;20.92;5.65;;;16.10;99.90;;;;;;5029112;28;20033;-75
2023/07/03 06:53:34;;;;;;;22.25;5.60;;;16.10;99.90;;;;;;5046865;28;20029;-72
2023/07/03 06:56:01;;;;;;;23.15;5.70;;;16.20;99.90;;;;;;5037732;28;20061;-73
2023/07/03 06:58:28;;;;;;;18.50;4.93;;;16.20;99.90;;;;;;5046958;28;20026;-69
2023/07/03 07:00:54;;;;;;;22.98;5.05;;;16.30;99.90;;;;;;5046996;28;20025;-72
2023/07/03 07:03:20;;;;;;;17.63;5.13;;;16.40;99.90;;;;;;5045450;28;20097;-72
2023/07/03 07:05:46;;;;;;;17.60;5.28;;;16.40;99.90;;;;;;5046478;28;20061;-72
2023/07/03 07:08:16;;;;;;;24.45;4.70;;;16.50;99.90;;;;;;5045656;28;20083;-71
2023/07/03 07:10:43;;;;;;;20.38;4.90;;;16.60;99.90;;;;;;5047342;28;20029;-69
2023/07/03 07:13:09;;;;;;;14.73;4.68;;;16.70;99.90;;;;;;5046622;28;20018;-71
2023/07/03 07:15:36;;;;;;;22.73;5.38;;;16.70;99.90;;;;;;5046661;28;20025;-74
2023/07/03 07:18:02;;;;;;;22.75;5.35;;;16.80;99.90;;;;;;5028806;28;20029;-71
2023/07/03 07:20:28;;;;;;;17.77;4.60;;;17.00;99.90;;;;;;5045874;28;20037;-72
2023/07/03 07:22:54;;;;;;;21.42;5.07;;;17.00;99.90;;;;;;5034316;28;20617;-74
2023/07/03 07:25:19;;;;;;;17.05;4.75;;;17.10;99.90;;;;;;5046950;28;20036;-72
2023/07/03 07:27:45;;;;;;;16.27;4.38;;;17.10;99.90;;;;;;5044662;28;20182;-70
2023/07/03 07:30:11;;;;;;;16.55;4.10;;;17.10;99.90;;;;;;5045552;28;20629;-71
2023/07/03 07:32:37;;;;;;;19.02;4.45;;;17.20;99.90;;;;;;5046335;28;20101;-74
2023/07/03 07:35:02;;;;;;;15.10;4.28;;;17.30;99.90;;;;;;5027524;28;20501;-69
2023/07/03 07:37:28;;;;;;;14.80;4.38;;;17.40;99.90;;;;;;5046566;28;20052;-71
2023/07/03 07:39:53;;;;;;;22.05;4.28;;;17.40;99.90;;;;;;5046289;28;20465;-70
2023/07/03 07:42:19;;;;;;;17.35;4.28;;;17.30;99.90;;;;;;5046185;28;20029;-71
2023/07/03 07:44:48;;;;;;;19.13;3.63;;;17.30;99.90;;;;;;5046706;28;20029;-69
2023/07/03 07:47:14;;;;;;;15.52;3.75;;;17.30;99.90;;;;;;5046321;28;20033;-71
2023/07/03 07:49:41;;;;;;;13.07;3.80;;;17.30;99.90;;;;;;5044106;28;20379;-73
2023/07/03 07:52:07;;;;;;;16.85;3.80;;;17.40;99.90;;;;;;5046428;28;20029;-70
2023/07/03 07:54:33;;;;;;;16.45;3.80;;;17.40;99.90;;;;;;5046057;28;20029;-72
2023/07/03 07:56:59;;;;;;;16.38;3.88;;;17.40;99.90;;;;;;5045737;28;20045;-71
2023/07/03 07:59:25;;;;;;;17.27;3.72;;;17.60;99.90;;;;;;5045151;28;20063;-69
2023/07/03 08:01:51;;;;;;;14.75;4.20;;;17.70;99.90;;;;;;5045629;28;20021;-69
2023/07/03 08:04:17;;;;;;;13.88;3.67;;;17.80;99.90;;;;;;5044044;28;20028;-73
2023/07/03 08:06:43;;;;;;;19.20;3.92;;;17.80;99.90;;;;;;5045464;28;20567;-69
2023/07/03 08:09:08;;;;;;;12.60;3.75;;;17.80;99.90;;;;;;5043250;28;20101;-70
2023/07/03 08:11:34;;;;;;;23.33;3.47;;;17.60;99.90;;;;;;5034477;28;20028;-69
2023/07/03 08:13:59;;;;;;;15.32;3.53;;;17.50;99.90;;;;;;5044335;28;20413;-70
2023/07/03 08:16:25;;;;;;;22.58;3.97;;;17.30;99.90;;;;;;5042599;28;20033;-72
2023/07/03 08:18:50;;;;;;;15.60;4.40;;;17.20;99.90;;;;;;5044279;28;20029;-70
2023/07/03 08:21:16;;;;;;;19.88;4.93;;;17.00;99.90;;;;;;5044719;28;20044;-69
2023/07/03 08:23:42;;;;;;;21.88;5.18;;;16.60;99.90;;;;;;5027326;28;20128;-69
2023/07/03 08:26:15;;;;;;;14.40;4.30;;;16.30;99.90;;;;;;5044579;28;20030;-70
2023/07/03 08:28:41;;;;;;;20.07;4.83;;;16.00;99.90;;;;;;5040598;28;20041;-71
2023/07/03 08:31:06;;;;;;;21.23;5.07;;;15.60;99.90;;;;;;5027745;28;20076;-66
2023/07/03 08:33:32;;;;;;;18.85;4.82;;;15.50;99.90;;;;;;5043537;28;20041;-67
2023/07/03 08:35:57;;;;;;;18.40;5.47;;;15.40;99.90;;;;;;5025631;28;20048;-67
2023/07/03 08:38:23;;;;;;;18.63;5.78;;;15.30;99.90;;;;;;5033112;28;20037;-65
2023/07/03 08:40:57;;;;;;;17.83;5.50;;;15.40;99.90;;;;;;5044281;28;20485;-67
2023/07/03 08:43:23;;;;;;;25.65;6.25;;;15.50;99.90;;;;;;5041627;28;20120;-68
2023/07/03 08:45:51;;;;;;;19.27;5.95;;;15.70;99.90;;;;;;5027118;28;20068;-69
2023/07/03 08:48:21;;;;;;;23.08;5.57;;;15.80;99.90;;;;;;5038813;28;20033;-66
2023/07/03 08:50:51;;;;;;;18.52;4.63;;;15.90;99.90;;;;;;5043691;28;20026;-67
2023/07/03 08:53:20;;;;;;;19.05;4.57;;;16.10;99.90;;;;;;5042773;28;20040;-67
2023/07/03 08:55:59;;;;;;;17.35;4.80;;;16.10;99.90;;;;;;5042887;28;20022;-67
2023/07/03 08:58:25;;;;;;;19.98;5.32;;;16.20;99.90;;;;;;5042896;28;20120;-65
2023/07/03 09:01:13;;;;;;;17.30;5.07;;;16.40;99.90;;;;;;5041422;28;20030;-67
2023/07/03 09:03:56;;;;;;;13.65;4.68;;;16.50;99.90;;;;;;5042035;28;20067;-68
2023/07/03 09:06:32;;;;;;;19.40;4.50;;;16.60;99.90;;;;;;5042758;28;20029;-69
2023/07/03 09:09:02;;;;;;;19.50;4.55;;;16.60;99.90;;;;;;5042020;28;20037;-70
2023/07/03 09:11:32;;;;;;;17.35;4.63;;;16.50;99.90;;;;;;5040943;28;20037;-67
2023/07/03 09:14:02;;;;;;;19.23;5.18;;;16.40;99.90;;;;;;5023339;28;20459;-72
2023/07/03 09:16:27;;;;;;;15.10;4.70;;;16.30;99.90;;;;;;5025020;28;20447;-70
2023/07/03 09:19:00;;;;;;;16.70;4.82;;;16.10;99.90;;;;;;5024554;28;20078;-71
2023/07/03 09:21:28;;;;;;;14.77;4.32;;;15.90;99.90;;;;;;5031303;28;20046;-69
2023/07/03 09:24:16;;;;;;;12.18;4.18;;;15.70;99.90;;;;;;5044710;28;20022;-68
2023/07/03 09:27:01;;;;;;;17.58;4.50;;;15.70;99.90;;;;;;5042286;28;20034;-70
2023/07/03 09:29:28;;;;;;;15.75;4.57;;;15.50;99.90;;;;;;5036559;28;20041;-68
2023/07/03 09:31:55;;;;;;;15.35;4.32;;;15.40;99.90;;;;;;5036923;28;20026;-71
2023/07/03 09:34:21;;;;;;;19.00;4.50;;;15.40;99.90;;;;;;5037158;28;20060;-68
2023/07/03 09:36:58;;;;;;;19.10;4.55;;;15.30;99.90;;;;;;5038624;28;20470;-72
2023/07/03 09:39:24;;;;;;;10.20;3.05;;;15.40;99.90;;;;;;5040178;28;20077;-71
2023/07/03 09:41:50;;;;;;;12.32;3.17;;;15.30;99.90;;;;;;5044365;28;20052;-70
2023/07/03 09:44:17;;;;;;;10.35;3.22;;;15.20;99.90;;;;;;5032515;28;20029;-70
2023/07/03 09:46:45;;;;;;;11.52;3.35;;;15.20;99.90;;;;;;5043617;28;20040;-70
2023/07/03 09:49:22;;;;;;;12.32;3.40;;;15.30;99.90;;;;;;5034139;28;20048;-70
2023/07/03 09:51:52;;;;;;;11.57;3.13;;;15.30;99.90;;;;;;5044209;28;20041;-72
2023/07/03 09:54:22;;;;;;;10.27;3.40;;;15.50;99.90;;;;;;5030487;28;20052;-70
2023/07/03 09:56:49;;;;;;;17.38;3.30;;;15.50;99.90;;;;;;5039945;28;20034;-69
2023/07/03 09:59:17;;;;;;;14.40;3.10;;;15.60;99.90;;;;;;5043147;28;20022;-71
2023/07/03 10:01:43;;;;;;;12.38;3.20;;;15.80;99.90;;;;;;5043737;28;20025;-70
2023/07/03 10:04:13;;;;;;;8.93;3.00;;;16.00;99.90;;;;;;5042902;28;20042;-69
2023/07/03 10:06:41;;;;;;;11.45;3.03;;;16.30;99.90;;;;;;5026371;28;20109;-69
2023/07/03 10:09:17;;;;;;;10.82;3.15;;;16.50;99.90;;;;;;5043745;28;20394;-68
2023/07/03 10:11:56;;;;;;;11.52;2.75;;;16.80;99.90;;;;;;5045227;28;20033;-69
2023/07/03 10:14:30;;;;;;;14.60;3.70;;;17.00;99.90;;;;;;5047734;28;20089;-71
2023/07/03 10:16:56;;;;;;;15.35;3.25;;;17.30;99.90;;;;;;5036811;28;20036;-68
2023/07/03 10:19:22;;;;;;;10.18;2.90;;;17.40;99.90;;;;;;5047931;28;20029;-69
2023/07/03 10:21:50;;;;;;;6.00;2.45;;;17.50;99.90;;;;;;5030130;28;20021;-74
2023/07/03 10:24:16;;;;;;;15.30;2.90;;;17.60;99.90;;;;;;5047337;28;20387;-73
2023/07/03 10:26:47;;;;;;;10.10;2.63;;;17.70;99.90;;;;;;5028716;28;20028;-69
2023/07/03 10:29:37;;;;;;;14.63;3.35;;;17.70;99.90;;;;;;5046840;28;20064;-70
2023/07/03 10:32:08;;;;;;;8.65;1.55;;;17.60;99.90;;;;;;5046640;28;20536;-71
2023/07/03 10:34:44;;;;;;;2.40;0.90;;;17.20;99.90;;;;;;5033073;28;20025;-68
2023/07/03 10:37:13;;;;;;;4.35;1.60;;;16.70;99.90;;;;;;5045053;28;20021;-72
2023/07/03 10:39:50;;;;;;;5.40;1.50;;;16.30;99.90;;;;;;5046717;28;20046;-69
2023/07/03 10:42:47;;;;;;;5.18;1.40;;;16.00;99.90;;;;;;5041183;28;20029;-71
2023/07/03 10:45:14;;;;;;;5.07;1.45;;;15.70;99.90;;;;;;5046136;28;20037;-72
2023/07/03 10:47:48;;;;;;;4.38;1.58;;;15.50;99.90;;;;;;5046770;28;20046;-71
2023/07/03 10:50:16;;;;;;;3.25;1.40;;;15.40;99.90;;;;;;5046523;28;20030;-71
2023/07/03 10:53:11;;;;;;;4.45;1.50;;;15.20;99.90;;;;;;5046885;28;20049;-70
2023/07/03 10:56:13;;;;;;;4.97;1.70;;;15.10;99.90;;;;;;5046309;28;20033;-69
2023/07/03 10:58:44;;;;;;;4.18;1.73;;;15.10;99.90;;;;;;5028730;28;20037;-70
2023/07/03 11:01:31;;;;;;;6.85;1.60;;;15.10;99.90;;;;;;5028738;28;20013;-70
2023/07/03 11:04:44;;;;;;;9.57;2.15;;;15.20;99.90;;;;;;5045947;28;20033;-69
2023/07/03 11:07:33;;;;;;;5.78;2.00;;;15.30;99.90;;;;;;5046788;28;20108;-72
2023/07/03 11:10:20;;;;;;;8.40;1.90;;;15.50;99.90;;;;;;5038215;28;20073;-67
2023/07/03 11:13:12;;;;;;;7.00;2.10;;;15.80;99.90;;;;;;5046277;28;20025;-71
2023/07/03 11:15:50;;;;;;;8.35;2.10;;;16.00;99.90;;;;;;5023035;28;20048;-68
2023/07/03 11:18:49;;;;;;;7.25;2.05;;;16.20;99.90;;;;;;5046240;28;20033;-72
2023/07/03 11:21:20;;;;;;;8.00;2.25;;;16.40;99.90;;;;;;5046912;28;20034;-72
2023/07/03 11:23:52;;;;;;;5.07;2.08;;;16.60;99.90;;;;;;5044233;28;20124;-70
2023/07/03 11:26:39;;;;;;;7.18;2.28;;;16.70;99.90;;;;;;5046211;28;20081;-72
2023/07/03 11:29:10;;;;;;;4.97;1.73;;;16.90;99.90;;;;;;5045641;28;20077;-74
2023/07/03 11:31:39;;;;;;;9.02;1.83;;;17.00;99.90;;;;;;5045796;28;20029;-72
2023/07/03 11:34:08;;;;;;;6.10;1.63;;;17.10;99.90;;;;;;5041356;28;20474;-71
2023/07/03 11:36:44;;;;;;;8.20;1.80;;;17.10;99.90;;;;;;5045532;28;20021;-67
2023/07/03 11:39:26;;;;;;;8.02;1.75;;;17.10;99.90;;;;;;5045358;28;20048;-72
2023/07/03 11:42:10;;;;;;;7.82;1.58;;;17.20;99.90;;;;;;5045954;28;20036;-69
2023/07/03 11:44:45;;;;;;;6.40;1.50;;;17.20;99.90;;;;;;5045950;28;20057;-66
2023/07/03 11:47:33;;;;;;;3.17;1.40;;;17.30;99.90;;;;;;5027982;28;20044;-69
2023/07/03 11:50:02;;;;;;;5.70;1.60;;;17.20;99.90;;;;;;5028235;28;20056;-72
2023/07/03 11:52:31;;;;;;;9.45;1.48;;;17.20;99.90;;;;;;5046220;28;20021;-67
2023/07/03 11:55:10;;;;;;;5.50;1.40;;;17.30;99.90;;;;;;5046285;28;20033;-70
2023/07/03 11:57:39;;;;;;;5.47;1.73;;;17.20;99.90;;;;;;5046657;28;20501;-71
2023/07/03 12:00:27;;;;;;;6.90;1.40;;;17.10;99.90;;;;;;5045989;28;20025;-70
2023/07/03 12:02:57;;;;;;;17.00;3.20;;;17.00;99.90;;;;;;5026437;28;20025;-73
2023/07/03 12:05:42;;;;;;;6.80;1.48;;;17.00;99.90;;;;;;5026280;28;20033;-66
2023/07/03 12:08:22;;;;;;;8.60;1.60;;;17.00;99.90;;;;;;5025606;28;20068;-67
2023/07/03 12:10:52;;;;;;;8.77;1.80;;;17.10;99.90;;;;;;5026362;28;20053;-67
2023/07/03 12:13:39;;;;;;;6.38;1.70;;;17.30;99.90;;;;;;5026058;28;20026;-69
2023/07/03 12:16:13;;;;;;;6.47;1.67;;;17.60;99.90;;;;;;5026259;28;20112;-67
2023/07/03 12:18:38;;;;;;;4.43;1.50;;;18.10;99.90;;;;;;5026119;28;20410;-69
2023/07/03 12:21:05;;;;;;;9.50;1.83;;;18.40;99.90;;;;;;5025642;28;20090;-69
2023/07/03 12:23:45;;;;;;;9.10;1.98;;;18.60;99.90;;;;;;5025775;28;20026;-72
2023/07/03 12:26:12;;;;;;;8.82;2.25;;;18.90;99.90;;;;;;5008838;28;20034;-71
2023/07/03 12:28:39;;;;;;;9.23;2.30;;;18.90;99.90;;;;;;5025777;28;20053;-70
2023/07/03 12:31:13;;;;;;;7.88;2.30;;;18.90;99.90;;;;;;5007650;28;20426;-68
2023/07/03 12:33:52;;;;;;;12.80;2.30;;;18.90;99.90;;;;;;5008366;28;20053;-68
2023/07/03 12:36:32;;;;;;;8.32;2.10;;;18.90;99.90;;;;;;5025673;28;20033;-68
2023/07/03 12:39:00;;;;;;;12.45;2.58;;;19.20;99.90;;;;;;5007910;28;20056;-70
2023/07/03 12:41:32;;;;;;;9.45;2.45;;;19.30;99.90;;;;;;5025376;28;20086;-70
2023/07/03 12:44:01;;;;;;;6.43;1.73;;;19.50;99.90;;;;;;5024980;28;20062;-70
2023/07/03 12:46:38;;;;;;;6.43;2.33;;;19.40;99.90;;;;;;5025902;28;20026;-69
2023/07/03 12:49:12;;;;;;;7.38;2.38;;;19.20;99.90;;;;;;5025243;28;20041;-69